createdAt,value
2019-01-09T05:00:52.484Z,15.20
2019-01-09T05:01:52.353Z,10.20
2019-01-09T05:03:45.013Z,11.20
2019-01-09T05:04:44.894Z,13.20
2019-01-09T05:06:37.656Z,10.80
2019-01-09T05:07:37.450Z,10.30
2019-01-09T05:09:30.099Z,12.00
2019-01-09T05:10:29.980Z,9.30
2019-01-09T05:12:22.671Z,12.90
2019-01-09T05:13:22.522Z,12.60
2019-01-09T05:15:15.189Z,13.60
2019-01-09T05:16:15.070Z,14.90
2019-01-09T05:18:07.749Z,14.30
2019-01-09T05:19:07.618Z,13.60
2019-01-09T05:21:00.276Z,12.80
2019-01-09T05:22:00.160Z,12.20
2019-01-09T05:23:52.847Z,12.30
2019-01-09T05:24:52.712Z,17.50
2019-01-09T05:26:45.373Z,16.70
2019-01-09T05:27:45.262Z,17.90
2019-01-09T05:29:37.972Z,14.30
2019-01-09T05:30:37.872Z,17.30
2019-01-09T05:32:30.459Z,17.40
2019-01-09T05:33:30.345Z,17.50
2019-01-09T05:35:23.052Z,17.70
2019-01-09T05:36:22.919Z,17.70
2019-01-09T05:38:15.572Z,18.10
2019-01-09T05:39:15.456Z,16.80
2019-01-09T05:41:08.138Z,21.70
2019-01-09T05:42:08.008Z,18.10
2019-01-09T05:44:00.662Z,16.00
2019-01-09T05:45:00.548Z,13.50
2019-01-09T05:46:53.225Z,20.60
2019-01-09T05:47:53.100Z,25.10
2019-01-09T05:49:45.754Z,18.90
2019-01-09T05:50:45.638Z,16.70
2019-01-09T05:52:38.319Z,18.10
2019-01-09T05:53:38.189Z,19.30
2019-01-09T05:55:30.861Z,16.20
2019-01-09T05:56:30.746Z,21.70
2019-01-09T05:58:23.432Z,21.70
2019-01-09T05:59:23.288Z,18.40
2019-01-09T06:01:16.053Z,19.80
2019-01-09T06:02:15.842Z,23.00
2019-01-09T06:04:08.529Z,19.30
2019-01-09T06:05:08.386Z,24.40
2019-01-09T06:07:01.053Z,20.20
2019-01-09T06:08:00.936Z,21.60
2019-01-09T06:09:53.627Z,20.00
2019-01-09T06:10:53.501Z,19.30
2019-01-09T06:12:46.156Z,23.30
2019-01-09T06:13:46.025Z,22.90
2019-01-09T06:15:38.715Z,19.00
2019-01-09T06:16:38.590Z,19.50
2019-01-09T06:18:31.233Z,22.80
2019-01-09T06:19:31.121Z,22.90
2019-01-09T06:21:23.803Z,22.10
2019-01-09T06:22:23.667Z,24.70
2019-01-09T06:24:16.324Z,20.30
2019-01-09T06:25:16.206Z,25.00
2019-01-09T06:27:08.885Z,20.40
2019-01-09T06:28:08.764Z,26.50
2019-01-09T06:30:01.413Z,20.50
2019-01-09T06:31:01.306Z,25.40
2019-01-09T06:32:53.990Z,20.70
2019-01-09T06:33:53.846Z,23.80
2019-01-09T06:35:46.501Z,20.20
2019-01-09T06:36:46.393Z,23.70
2019-01-09T06:38:39.074Z,21.80
2019-01-09T06:39:38.934Z,19.50
2019-01-09T06:41:31.592Z,24.50
2019-01-09T06:42:31.480Z,15.10
2019-01-09T06:44:24.155Z,22.60
2019-01-09T06:45:24.025Z,26.50
2019-01-09T06:47:16.683Z,19.50
2019-01-09T06:48:16.567Z,19.60
2019-01-09T06:50:09.250Z,22.40
2019-01-09T06:51:09.108Z,21.50
2019-01-09T06:53:01.767Z,19.70
2019-01-09T06:54:01.672Z,21.80
2019-01-09T06:55:54.363Z,29.70
2019-01-09T06:56:54.206Z,20.10
2019-01-09T06:58:46.865Z,22.60
2019-01-09T06:59:46.760Z,18.60
2019-01-09T07:01:39.437Z,23.30
2019-01-09T07:02:39.290Z,22.60
2019-01-09T07:04:31.958Z,20.40
2019-01-09T07:05:31.840Z,22.40
2019-01-09T07:07:24.523Z,19.30
2019-01-09T07:08:24.382Z,22.20
2019-01-09T07:10:17.036Z,16.70
2019-01-09T07:11:16.919Z,20.30
2019-01-09T07:13:09.600Z,25.20
2019-01-09T07:14:09.465Z,18.90
2019-01-09T07:16:02.124Z,17.90
2019-01-09T07:17:02.011Z,16.00
2019-01-09T07:18:54.698Z,20.80
2019-01-09T07:19:54.566Z,19.00
2019-01-09T07:21:47.217Z,19.90
2019-01-09T07:22:47.100Z,16.30
2019-01-09T07:24:39.783Z,21.10
2019-01-09T07:25:39.640Z,18.90
2019-01-09T07:27:32.963Z,19.90
2019-01-09T07:28:32.182Z,18.40
2019-01-09T07:30:24.872Z,20.10
2019-01-09T07:31:24.729Z,23.20
2019-01-09T07:33:17.392Z,21.80
2019-01-09T07:34:17.283Z,19.20
2019-01-09T07:36:10.449Z,21.60
2019-01-09T07:37:10.315Z,16.20
2019-01-09T07:39:02.978Z,21.00
2019-01-09T07:40:02.862Z,17.50
2019-01-09T07:41:55.534Z,18.70
2019-01-09T07:42:55.404Z,20.20
2019-01-09T07:44:48.084Z,20.20
2019-01-09T07:45:47.966Z,18.90
2019-01-09T07:47:40.648Z,19.80
2019-01-09T07:48:40.508Z,15.90
2019-01-09T07:50:33.169Z,15.60
2019-01-09T07:51:33.053Z,19.10
2019-01-09T07:53:25.730Z,18.70
2019-01-09T07:54:25.596Z,18.30
2019-01-09T07:56:18.257Z,16.00
2019-01-09T07:57:18.143Z,18.30
2019-01-09T07:59:10.834Z,17.10
2019-01-09T08:00:10.696Z,15.70
2019-01-09T08:02:03.358Z,14.70
2019-01-09T08:03:03.232Z,16.00
2019-01-09T08:04:55.913Z,17.50
2019-01-09T08:05:55.783Z,13.70
2019-01-09T08:07:53.776Z,15.40
2019-01-09T08:08:48.326Z,15.80
2019-01-09T08:10:41.003Z,12.00
2019-01-09T08:11:40.861Z,14.10
2019-01-09T08:13:33.516Z,18.50
2019-01-09T08:14:33.415Z,14.60
2019-01-09T08:16:26.077Z,12.60
2019-01-09T08:17:25.947Z,14.00
2019-01-09T08:19:18.607Z,14.50
2019-01-09T08:20:18.512Z,13.40
2019-01-09T08:22:11.191Z,17.90
2019-01-09T08:23:11.055Z,13.40
2019-01-09T08:25:03.714Z,13.30
2019-01-09T08:26:03.597Z,14.30
2019-01-09T08:27:56.273Z,15.30
2019-01-09T08:28:56.143Z,16.90
2019-01-09T08:30:48.815Z,14.00
2019-01-09T08:31:48.700Z,13.60
2019-01-09T08:33:41.374Z,14.00
2019-01-09T08:34:41.248Z,12.40
2019-01-09T08:36:33.988Z,11.40
2019-01-09T08:37:33.793Z,12.20
2019-01-09T08:39:26.639Z,11.30
2019-01-09T08:40:26.334Z,16.80
2019-01-09T08:42:18.991Z,14.50
2019-01-09T08:43:18.879Z,10.60
2019-01-09T08:45:11.554Z,11.70
2019-01-09T08:46:11.418Z,10.80
2019-01-09T08:48:04.089Z,10.70
2019-01-09T08:49:03.959Z,13.70
2019-01-09T08:50:56.640Z,9.40
2019-01-09T08:51:56.503Z,11.20
2019-01-09T08:53:49.169Z,9.50
2019-01-09T08:54:49.049Z,10.20
2019-01-09T08:56:41.730Z,12.40
2019-01-09T08:57:41.607Z,9.20
2019-01-09T08:59:34.263Z,10.20
2019-01-09T09:00:34.152Z,11.60
2019-01-09T09:02:26.867Z,8.10
2019-01-09T09:03:26.743Z,14.40
2019-01-09T09:05:19.357Z,12.20
2019-01-09T09:06:19.247Z,11.20
2019-01-09T09:08:12.575Z,9.00
2019-01-09T09:09:11.790Z,13.10
2019-01-09T09:11:04.459Z,8.40
2019-01-09T09:12:04.340Z,8.60
2019-01-09T09:13:57.017Z,7.60
2019-01-09T09:14:56.895Z,12.50
2019-01-09T09:16:49.560Z,11.70
2019-01-09T09:17:49.433Z,12.60
2019-01-09T09:19:42.120Z,7.80
2019-01-09T09:20:41.980Z,11.30
2019-01-09T09:22:34.647Z,11.30
2019-01-09T09:23:34.522Z,11.50
2019-01-09T09:25:27.205Z,8.40
2019-01-09T09:26:27.071Z,9.40
2019-01-09T09:28:19.736Z,8.50
2019-01-09T09:29:19.611Z,8.30
2019-01-09T09:31:12.294Z,11.90
2019-01-09T09:32:12.159Z,9.30
2019-01-09T09:34:04.820Z,8.90
2019-01-09T09:35:04.706Z,6.30
2019-01-09T09:36:57.395Z,10.20
2019-01-09T09:37:57.262Z,9.30
2019-01-09T09:39:49.920Z,6.70
2019-01-09T09:40:49.811Z,11.20
2019-01-09T09:42:42.487Z,14.30
2019-01-09T09:43:42.355Z,9.10
2019-01-09T09:45:35.017Z,10.50
2019-01-09T09:46:34.908Z,13.20
2019-01-09T09:48:27.588Z,12.40
2019-01-09T09:49:27.458Z,8.20
2019-01-09T09:51:20.125Z,9.00
2019-01-09T09:52:20.012Z,10.20
2019-01-09T09:54:12.690Z,9.10
2019-01-09T09:55:12.905Z,9.20
2019-01-09T09:57:05.228Z,9.10
2019-01-09T09:58:05.758Z,8.40
2019-01-09T09:59:57.784Z,7.40
2019-01-09T10:00:57.658Z,8.50
2019-01-09T10:02:50.318Z,10.40
2019-01-09T10:03:50.206Z,10.50
2019-01-09T10:05:42.894Z,8.70
2019-01-09T10:06:42.753Z,8.80
2019-01-09T10:08:35.412Z,10.40
2019-01-09T10:09:35.298Z,9.60
2019-01-09T10:11:27.981Z,14.10
2019-01-09T10:12:27.861Z,16.90
2019-01-09T10:14:20.508Z,14.70
2019-01-09T10:15:20.391Z,11.00
2019-01-09T10:17:13.074Z,9.40
2019-01-09T10:18:12.941Z,11.50
2019-01-09T10:20:05.605Z,11.90
2019-01-09T10:21:05.489Z,9.90
2019-01-09T10:22:58.167Z,11.00
2019-01-09T10:23:58.030Z,12.00
2019-01-09T10:25:50.694Z,11.30
2019-01-09T10:26:50.581Z,11.60
2019-01-09T10:28:43.266Z,11.30
2019-01-09T10:29:43.126Z,10.20
2019-01-09T10:31:35.784Z,8.60
2019-01-09T10:32:35.671Z,9.80
2019-01-09T10:34:28.343Z,12.20
2019-01-09T10:35:28.222Z,11.30
2019-01-09T10:37:20.872Z,10.90
2019-01-09T10:38:20.760Z,12.10
2019-01-09T10:40:13.999Z,6.30
2019-01-09T10:41:13.851Z,8.90
2019-01-09T10:43:06.516Z,8.10
2019-01-09T10:44:06.396Z,11.40
2019-01-09T10:45:59.081Z,10.20
2019-01-09T10:46:58.943Z,9.50
2019-01-09T10:48:51.609Z,12.10
2019-01-09T10:49:51.498Z,15.00
2019-01-09T10:51:44.267Z,10.10
2019-01-09T10:52:44.127Z,8.60
2019-01-09T10:54:36.788Z,11.20
2019-01-09T10:55:36.676Z,12.80
2019-01-09T10:57:29.360Z,6.80
2019-01-09T10:58:29.217Z,11.60
2019-01-09T11:00:21.903Z,15.50
2019-01-09T11:01:21.778Z,8.70
2019-01-09T11:03:14.467Z,9.60
2019-01-09T11:04:14.395Z,9.80
2019-01-09T11:06:06.988Z,10.90
2019-01-09T11:07:06.877Z,9.40
2019-01-09T11:08:59.550Z,10.30
2019-01-09T11:09:59.421Z,9.10
2019-01-09T11:11:52.084Z,10.10
2019-01-09T11:12:51.977Z,8.90
2019-01-09T11:14:45.166Z,9.50
2019-01-09T11:15:45.022Z,9.30
2019-01-09T11:17:37.697Z,9.60
2019-01-09T11:18:37.619Z,11.60
2019-01-09T11:20:30.263Z,11.00
2019-01-09T11:21:30.126Z,7.50
2019-01-09T11:23:22.782Z,8.80
2019-01-09T11:24:22.666Z,7.00
2019-01-09T11:26:15.356Z,6.60
2019-01-09T11:27:15.217Z,12.10
2019-01-09T11:29:07.957Z,9.90
2019-01-09T11:30:07.763Z,8.80
2019-01-09T11:32:00.448Z,9.10
2019-01-09T11:33:00.305Z,10.00
2019-01-09T11:34:52.970Z,6.90
2019-01-09T11:35:52.858Z,10.70
2019-01-09T11:37:45.537Z,7.60
2019-01-09T11:38:45.401Z,7.90
2019-01-09T11:40:38.066Z,6.30
2019-01-09T11:41:37.950Z,7.10
2019-01-09T11:43:30.634Z,8.40
2019-01-09T11:44:30.491Z,7.20
2019-01-09T11:46:23.160Z,6.40
2019-01-09T11:47:23.041Z,9.60
2019-01-09T11:49:15.724Z,9.80
2019-01-09T11:50:15.591Z,7.60
2019-01-09T11:52:08.254Z,9.80
2019-01-09T11:53:08.144Z,6.90
2019-01-09T11:55:00.815Z,9.70
2019-01-09T11:56:00.684Z,9.30
2019-01-09T11:57:53.353Z,6.20
2019-01-09T11:58:53.231Z,10.30
2019-01-09T12:00:45.916Z,6.10
2019-01-09T12:01:45.804Z,6.80
2019-01-09T12:03:38.472Z,7.90
2019-01-09T12:04:38.328Z,7.20
2019-01-09T12:06:30.995Z,8.60
2019-01-09T12:07:30.881Z,8.00
2019-01-09T12:09:23.556Z,8.60
2019-01-09T12:10:29.878Z,8.30
2019-01-09T12:12:16.113Z,9.60
2019-01-09T12:13:15.999Z,9.10
2019-01-09T12:15:08.679Z,6.80
2019-01-09T12:16:08.542Z,5.30
2019-01-09T12:18:01.202Z,8.70
2019-01-09T12:19:01.124Z,9.60
2019-01-09T12:20:53.849Z,8.10
2019-01-09T12:21:53.712Z,8.10
2019-01-09T12:23:46.385Z,9.20
2019-01-09T12:24:46.265Z,6.00
2019-01-09T12:26:38.985Z,8.30
2019-01-09T12:27:38.810Z,6.10
2019-01-09T12:29:31.478Z,7.30
2019-01-09T12:30:31.372Z,8.10
2019-01-09T12:32:24.061Z,6.10
2019-01-09T12:33:23.920Z,8.60
2019-01-09T12:35:16.577Z,6.20
2019-01-09T12:36:16.462Z,11.40
2019-01-09T12:38:09.138Z,5.70
2019-01-09T12:39:13.334Z,7.80
2019-01-09T12:41:01.688Z,8.50
2019-01-09T12:42:01.562Z,6.60
2019-01-09T12:43:54.238Z,6.80
2019-01-09T12:44:54.114Z,7.80
2019-01-09T12:46:46.777Z,7.20
2019-01-09T12:47:46.670Z,6.10
2019-01-09T12:49:39.344Z,7.90
2019-01-09T12:50:39.223Z,11.80
2019-01-09T12:52:31.884Z,6.90
2019-01-09T12:53:34.148Z,6.90
2019-01-09T12:55:24.447Z,6.40
2019-01-09T12:56:24.321Z,7.20
2019-01-09T12:58:18.001Z,8.30
2019-01-09T12:59:21.844Z,5.10
2019-01-09T13:01:10.537Z,6.70
2019-01-09T13:02:10.431Z,7.50
2019-01-09T13:04:03.109Z,6.20
2019-01-09T13:05:02.975Z,5.80
2019-01-09T13:06:56.130Z,6.50
2019-01-09T13:07:56.021Z,7.60
2019-01-09T13:09:48.699Z,7.10
2019-01-09T13:10:48.560Z,7.10
2019-01-09T13:12:41.230Z,9.60
2019-01-09T13:13:41.125Z,6.60
2019-01-09T13:15:33.801Z,7.20
2019-01-09T13:16:33.658Z,8.80
2019-01-09T13:18:26.347Z,7.50
2019-01-09T13:19:26.226Z,7.60
2019-01-09T13:21:18.928Z,9.20
2019-01-09T13:22:18.785Z,9.10
2019-01-09T13:24:11.465Z,7.60
2019-01-09T13:25:11.345Z,9.30
2019-01-09T13:27:04.016Z,6.70
2019-01-09T13:28:03.881Z,9.70
2019-01-09T13:29:56.539Z,9.90
2019-01-09T13:30:56.433Z,8.00
2019-01-09T13:32:49.107Z,8.60
2019-01-09T13:33:49.004Z,6.40
2019-01-09T13:35:41.635Z,10.20
2019-01-09T13:36:41.532Z,6.30
2019-01-09T13:38:34.254Z,6.60
2019-01-09T13:39:34.149Z,6.10
2019-01-09T13:41:26.802Z,10.30
2019-01-09T13:42:26.713Z,7.50
2019-01-09T13:44:19.476Z,6.30
2019-01-09T13:45:19.214Z,8.60
2019-01-09T13:47:11.885Z,11.70
2019-01-09T13:48:11.765Z,6.60
2019-01-09T13:50:04.709Z,9.80
2019-01-09T13:51:04.397Z,6.80
2019-01-09T13:52:57.164Z,8.20
2019-01-09T13:53:57.072Z,8.10
2019-01-09T13:55:49.738Z,7.00
2019-01-09T13:56:49.621Z,8.00
2019-01-09T13:58:42.268Z,6.40
2019-01-09T13:59:42.156Z,6.60
2019-01-09T14:01:34.831Z,10.20
2019-01-09T14:02:34.700Z,8.20
2019-01-09T14:04:27.358Z,10.40
2019-01-09T14:05:27.242Z,7.60
2019-01-09T14:07:19.930Z,9.40
2019-01-09T14:08:19.810Z,7.30
2019-01-09T14:10:12.459Z,6.90
2019-01-09T14:11:12.348Z,6.20
2019-01-09T14:13:05.033Z,9.90
2019-01-09T14:14:04.900Z,7.10
2019-01-09T14:15:57.556Z,9.00
2019-01-09T14:16:57.449Z,8.10
2019-01-09T14:18:55.174Z,8.50
2019-01-09T14:19:49.992Z,8.90
2019-01-09T14:21:42.656Z,6.90
2019-01-09T14:22:42.538Z,8.50
2019-01-09T14:24:35.236Z,7.30
2019-01-09T14:25:35.099Z,9.10
2019-01-09T14:27:27.769Z,7.10
2019-01-09T14:28:27.649Z,7.40
2019-01-09T14:30:20.349Z,6.30
2019-01-09T14:31:20.224Z,6.10
2019-01-09T14:33:12.863Z,6.60
2019-01-09T14:34:12.749Z,9.50
2019-01-09T14:36:05.433Z,6.50
2019-01-09T14:37:05.290Z,7.60
2019-01-09T14:38:57.956Z,9.00
2019-01-09T14:39:57.835Z,7.60
2019-01-09T14:41:50.575Z,7.30
2019-01-09T14:42:50.380Z,10.70
2019-01-09T14:44:43.043Z,10.00
2019-01-09T14:45:43.654Z,8.20
2019-01-09T14:47:35.596Z,9.30
2019-01-09T14:48:35.473Z,10.00
2019-01-09T14:50:28.121Z,8.20
2019-01-09T14:51:28.016Z,9.30
2019-01-09T14:53:20.685Z,11.60
2019-01-09T14:54:20.564Z,6.80
2019-01-09T14:56:14.394Z,7.50
2019-01-09T14:57:13.109Z,8.20
2019-01-09T14:59:05.790Z,9.10
2019-01-09T15:00:05.660Z,10.10
2019-01-09T15:01:58.310Z,10.90
2019-01-09T15:02:58.202Z,8.90
2019-01-09T15:04:50.935Z,7.50
2019-01-09T15:05:50.810Z,9.30
2019-01-09T15:07:43.422Z,8.50
2019-01-09T15:08:43.291Z,6.70
2019-01-09T15:10:35.976Z,9.80
2019-01-09T15:11:35.836Z,9.90
2019-01-09T15:13:28.496Z,12.90
2019-01-09T15:14:28.387Z,12.90
2019-01-09T15:16:21.061Z,9.70
2019-01-09T15:17:20.928Z,7.80
2019-01-09T15:19:13.586Z,8.80
2019-01-09T15:20:13.474Z,10.20
2019-01-09T15:22:06.169Z,9.70
2019-01-09T15:23:06.022Z,8.10
2019-01-09T15:24:58.679Z,8.30
2019-01-09T15:25:58.565Z,12.00
2019-01-09T15:27:51.249Z,11.30
2019-01-09T15:28:51.132Z,8.00
2019-01-09T15:30:43.811Z,7.50
2019-01-09T15:31:43.651Z,8.50
2019-01-09T15:33:36.331Z,8.90
2019-01-09T15:34:36.197Z,7.90
2019-01-09T15:36:28.936Z,6.50
2019-01-09T15:37:28.763Z,8.40
2019-01-09T15:39:21.447Z,11.40
2019-01-09T15:40:21.306Z,10.70
2019-01-09T15:42:13.972Z,9.10
2019-01-09T15:43:13.851Z,7.40
2019-01-09T15:45:06.534Z,7.20
2019-01-09T15:46:06.399Z,7.10
2019-01-09T15:47:59.057Z,7.40
2019-01-09T15:48:58.970Z,8.10
2019-01-09T15:50:51.627Z,8.20
2019-01-09T15:51:51.504Z,7.10
2019-01-09T15:53:44.248Z,7.80
2019-01-09T15:54:44.137Z,8.90
2019-01-09T15:56:37.672Z,7.90
2019-01-09T15:57:37.533Z,7.90
2019-01-09T15:59:30.205Z,9.20
2019-01-09T16:00:30.090Z,7.90
2019-01-09T16:02:22.772Z,8.00
2019-01-09T16:03:22.635Z,7.50
2019-01-09T16:05:15.310Z,8.10
2019-01-09T16:06:15.183Z,10.00
2019-01-09T16:08:07.860Z,8.80
2019-01-09T16:09:07.723Z,5.70
2019-01-09T16:11:00.378Z,9.70
2019-01-09T16:12:00.273Z,8.90
2019-01-09T16:13:52.972Z,11.70
2019-01-09T16:14:52.834Z,10.00
2019-01-09T16:16:45.495Z,10.10
2019-01-09T16:17:45.381Z,11.10
2019-01-09T16:19:38.064Z,12.30
2019-01-09T16:20:37.920Z,8.70
2019-01-09T16:22:30.580Z,9.10
2019-01-09T16:23:30.488Z,9.10
2019-01-09T16:25:23.148Z,5.80
2019-01-09T16:26:23.018Z,9.20
2019-01-09T16:28:15.671Z,8.90
2019-01-09T16:29:15.570Z,8.70
2019-01-09T16:31:08.234Z,8.50
2019-01-09T16:32:08.105Z,7.50
2019-01-09T16:34:00.761Z,7.90
2019-01-09T16:35:00.651Z,7.70
2019-01-09T16:36:53.319Z,8.00
2019-01-09T16:37:53.185Z,9.30
2019-01-09T16:39:45.848Z,6.70
2019-01-09T16:40:45.732Z,7.40
2019-01-09T16:42:38.490Z,8.10
2019-01-09T16:43:38.294Z,9.20
2019-01-09T16:45:30.925Z,6.50
2019-01-09T16:46:30.815Z,8.00
2019-01-09T16:48:23.515Z,6.60
2019-01-09T16:49:27.790Z,6.30
2019-01-09T16:51:16.022Z,6.30
2019-01-09T16:52:16.982Z,6.80
2019-01-09T16:54:08.598Z,7.70
2019-01-09T16:55:08.460Z,7.40
2019-01-09T16:57:01.113Z,9.50
2019-01-09T16:58:00.990Z,6.80
2019-01-09T16:59:53.667Z,9.40
2019-01-09T17:00:53.533Z,7.50
2019-01-09T17:02:46.235Z,9.00
2019-01-09T17:03:46.129Z,8.30
2019-01-09T17:05:39.294Z,7.60
2019-01-09T17:06:39.164Z,6.60
2019-01-09T17:08:31.823Z,8.50
2019-01-09T17:09:31.705Z,6.80
2019-01-09T17:11:24.385Z,8.00
2019-01-09T17:12:24.243Z,10.50
2019-01-09T17:14:16.932Z,6.70
2019-01-09T17:15:16.795Z,8.70
2019-01-09T17:17:09.531Z,6.60
2019-01-09T17:18:09.341Z,5.70
2019-01-09T17:20:02.002Z,8.40
2019-01-09T17:21:01.881Z,8.40
2019-01-09T17:22:54.564Z,7.10
2019-01-09T17:23:54.425Z,8.50
2019-01-09T17:25:47.100Z,7.40
2019-01-09T17:26:46.977Z,6.90
2019-01-09T17:28:39.661Z,5.60
2019-01-09T17:29:39.533Z,10.10
2019-01-09T17:31:32.172Z,7.00
2019-01-09T17:32:32.058Z,8.00
2019-01-09T17:34:24.754Z,8.80
2019-01-09T17:35:24.608Z,8.10
2019-01-09T17:37:17.257Z,7.10
2019-01-09T17:38:17.145Z,9.60
2019-01-09T17:40:09.831Z,8.10
2019-01-09T17:41:09.691Z,7.00
2019-01-09T17:43:02.343Z,9.80
2019-01-09T17:44:02.226Z,9.30
2019-01-09T17:45:54.903Z,10.20
2019-01-09T17:46:54.774Z,7.60
2019-01-09T17:48:47.435Z,7.10
2019-01-09T17:49:47.320Z,8.20
2019-01-09T17:51:40.061Z,6.70
2019-01-09T17:52:39.936Z,9.70
2019-01-09T17:54:32.594Z,7.30
2019-01-09T17:55:32.479Z,5.40
2019-01-09T17:57:25.168Z,9.10
2019-01-09T17:58:25.021Z,8.10
2019-01-09T18:00:17.686Z,6.70
2019-01-09T18:01:17.573Z,7.70
2019-01-09T18:03:10.244Z,10.30
2019-01-09T18:04:10.113Z,6.00
2019-01-09T18:06:02.782Z,7.60
2019-01-09T18:07:02.753Z,8.80
2019-01-09T18:08:55.339Z,7.40
2019-01-09T18:09:55.204Z,7.10
2019-01-09T18:11:47.879Z,7.70
2019-01-09T18:12:47.763Z,6.80
2019-01-09T18:14:40.427Z,5.70
2019-01-09T18:15:40.301Z,6.90
2019-01-09T18:17:32.955Z,7.80
2019-01-09T18:18:34.527Z,7.60
2019-01-09T18:20:25.528Z,8.40
2019-01-09T18:21:25.388Z,8.60
2019-01-09T18:23:18.057Z,9.60
2019-01-09T18:24:18.013Z,8.50
2019-01-09T18:26:10.631Z,6.60
2019-01-09T18:27:10.487Z,9.20
2019-01-09T18:29:03.148Z,5.70
2019-01-09T18:30:03.031Z,9.10
2019-01-09T18:31:55.716Z,7.80
2019-01-09T18:32:55.581Z,9.10
2019-01-09T18:34:48.235Z,7.20
2019-01-09T18:35:48.123Z,9.50
2019-01-09T18:37:40.804Z,7.10
2019-01-09T18:38:40.663Z,8.00
2019-01-09T18:40:33.328Z,6.30
2019-01-09T18:41:33.217Z,7.20
2019-01-09T18:43:25.908Z,6.90
2019-01-09T18:44:25.779Z,8.50
2019-01-09T18:46:18.416Z,6.10
2019-01-09T18:47:18.321Z,7.70
2019-01-09T18:49:10.986Z,10.40
2019-01-09T18:50:10.849Z,5.90
2019-01-09T18:52:03.506Z,7.90
2019-01-09T18:53:03.399Z,8.90
2019-01-09T18:54:56.093Z,8.70
2019-01-09T18:55:55.965Z,6.60
2019-01-09T18:57:48.615Z,7.40
2019-01-09T18:58:48.506Z,7.60
2019-01-09T19:00:41.183Z,8.70
2019-01-09T19:01:41.044Z,5.20
2019-01-09T19:03:33.701Z,7.90
2019-01-09T19:04:33.589Z,7.20
2019-01-09T19:06:34.803Z,8.00
2019-01-09T19:07:26.134Z,7.40
2019-01-09T19:09:18.783Z,4.90
2019-01-09T19:10:18.671Z,6.60
2019-01-09T19:12:11.344Z,8.30
2019-01-09T19:13:11.214Z,9.30
2019-01-09T19:15:03.881Z,9.30
2019-01-09T19:16:03.762Z,7.00
2019-01-09T19:17:56.440Z,5.50
2019-01-09T19:18:56.297Z,9.80
2019-01-09T19:20:48.960Z,5.80
2019-01-09T19:21:48.847Z,8.00
2019-01-09T19:23:41.530Z,7.00
2019-01-09T19:24:41.394Z,7.30
2019-01-09T19:26:34.052Z,7.60
2019-01-09T19:27:33.944Z,7.20
2019-01-09T19:29:26.632Z,6.70
2019-01-09T19:30:26.535Z,5.90
2019-01-09T19:32:19.157Z,4.80
2019-01-09T19:33:19.044Z,7.50
2019-01-09T19:35:11.736Z,7.40
2019-01-09T19:36:11.589Z,8.70
2019-01-09T19:38:04.236Z,5.20
2019-01-09T19:39:04.127Z,6.20
2019-01-09T19:40:56.799Z,7.70
2019-01-09T19:41:56.667Z,8.40
2019-01-09T19:43:49.326Z,8.20
2019-01-09T19:44:49.209Z,8.10
2019-01-09T19:46:41.882Z,10.00
2019-01-09T19:47:41.764Z,7.70
2019-01-09T19:49:34.415Z,8.20
2019-01-09T19:50:42.322Z,9.40
2019-01-09T19:52:26.972Z,7.70
2019-01-09T19:53:26.839Z,5.30
2019-01-09T19:55:19.497Z,9.10
2019-01-09T19:56:19.406Z,9.00
2019-01-09T19:58:12.102Z,8.70
2019-01-09T19:59:11.963Z,7.50
2019-01-09T20:01:04.614Z,10.80
2019-01-09T20:02:04.593Z,7.50
2019-01-09T20:03:57.247Z,10.30
2019-01-09T20:04:57.041Z,8.70
2019-01-09T20:06:49.719Z,8.90
2019-01-09T20:07:49.610Z,7.60
2019-01-09T20:09:42.292Z,9.10
2019-01-09T20:10:42.136Z,8.60
2019-01-09T20:12:34.824Z,7.60
2019-01-09T20:13:34.691Z,7.20
2019-01-09T20:15:27.384Z,7.60
2019-01-09T20:16:27.251Z,7.90
2019-01-09T20:18:19.924Z,8.80
2019-01-09T20:19:19.804Z,8.70
2019-01-09T20:21:12.504Z,9.20
2019-01-09T20:22:12.401Z,9.60
2019-01-09T20:24:05.029Z,8.30
2019-01-09T20:25:04.907Z,8.00
2019-01-09T20:26:57.580Z,8.20
2019-01-09T20:27:57.493Z,6.20
2019-01-09T20:29:50.109Z,8.10
2019-01-09T20:30:49.997Z,8.40
2019-01-09T20:32:42.680Z,8.70
2019-01-09T20:33:42.597Z,8.40
2019-01-09T20:35:35.210Z,4.90
2019-01-09T20:36:35.081Z,12.80
2019-01-09T20:38:27.777Z,9.30
2019-01-09T20:39:27.631Z,6.70
2019-01-09T20:41:20.311Z,7.40
2019-01-09T20:42:20.172Z,7.00
2019-01-09T20:44:12.853Z,7.80
2019-01-09T20:45:12.793Z,6.40
2019-01-09T20:47:05.427Z,7.30
2019-01-09T20:48:05.265Z,10.80
2019-01-09T20:49:57.953Z,7.00
2019-01-09T20:50:57.860Z,6.00
2019-01-09T20:52:50.480Z,8.20
2019-01-09T20:53:50.361Z,7.60
2019-01-09T20:55:43.118Z,7.80
2019-01-09T20:56:42.976Z,5.60
2019-01-09T20:58:35.567Z,8.00
2019-01-09T20:59:35.459Z,5.80
2019-01-09T21:01:28.230Z,5.70
2019-01-09T21:02:28.355Z,5.90
2019-01-09T21:04:20.798Z,10.80
2019-01-09T21:05:20.585Z,7.00
2019-01-09T21:07:13.274Z,6.40
2019-01-09T21:08:13.128Z,7.30
2019-01-09T21:10:05.977Z,7.90
2019-01-09T21:11:05.860Z,6.70
2019-01-09T21:12:58.510Z,6.90
2019-01-09T21:13:58.362Z,6.20
2019-01-09T21:15:52.015Z,7.70
2019-01-09T21:16:52.086Z,7.70
2019-01-09T21:18:44.867Z,5.30
2019-01-09T21:19:44.537Z,8.90
2019-01-09T21:21:37.196Z,7.00
2019-01-09T21:22:37.072Z,6.20
2019-01-09T21:24:29.759Z,5.20
2019-01-09T21:25:29.621Z,5.80
2019-01-09T21:27:23.026Z,7.30
2019-01-09T21:28:22.903Z,8.10
2019-01-09T21:30:15.576Z,5.10
2019-01-09T21:31:15.451Z,6.80
2019-01-09T21:33:08.117Z,5.40
2019-01-09T21:34:07.999Z,8.10
2019-01-09T21:36:00.673Z,5.10
2019-01-09T21:37:00.539Z,11.00
2019-01-09T21:38:53.193Z,7.20
2019-01-09T21:39:53.085Z,6.90
2019-01-09T21:41:53.235Z,5.90
2019-01-09T21:42:45.632Z,7.70
2019-01-09T21:44:38.286Z,6.10
2019-01-09T21:45:38.167Z,6.70
2019-01-09T21:47:31.338Z,9.20
2019-01-09T21:48:31.200Z,8.00
2019-01-09T21:50:23.881Z,6.40
2019-01-09T21:51:23.764Z,6.10
2019-01-09T21:53:17.237Z,7.60
2019-01-09T21:54:16.313Z,7.30
2019-01-09T21:56:08.977Z,9.60
2019-01-09T21:57:08.896Z,7.20
2019-01-09T21:59:01.614Z,7.70
2019-01-09T22:00:01.484Z,6.90
2019-01-09T22:01:54.635Z,6.90
2019-01-09T22:02:54.529Z,7.50
2019-01-09T22:04:47.202Z,6.10
2019-01-09T22:05:47.061Z,7.80
2019-01-09T22:07:39.725Z,7.20
2019-01-09T22:08:39.606Z,7.30
2019-01-09T22:10:32.279Z,6.70
2019-01-09T22:11:32.151Z,5.30
2019-01-09T22:13:24.810Z,7.20
2019-01-09T22:14:24.692Z,6.80
2019-01-09T22:16:17.370Z,7.00
2019-01-09T22:17:17.237Z,9.50
2019-01-09T22:19:12.096Z,10.10
2019-01-09T22:20:09.787Z,8.00
2019-01-09T22:22:02.460Z,9.50
2019-01-09T22:23:02.315Z,8.00
2019-01-09T22:24:54.974Z,9.50
2019-01-09T22:25:54.852Z,9.20
2019-01-09T22:27:47.538Z,8.40
2019-01-09T22:28:47.399Z,6.90
2019-01-09T22:30:40.049Z,8.70
2019-01-09T22:31:39.935Z,10.60
2019-01-09T22:33:32.616Z,9.50
2019-01-09T22:34:32.485Z,7.80
2019-01-09T22:36:25.140Z,7.50
2019-01-09T22:37:25.028Z,6.10
2019-01-09T22:39:17.697Z,6.90
2019-01-09T22:40:17.628Z,6.90
2019-01-09T22:42:11.939Z,8.00
2019-01-09T22:43:10.109Z,7.30
2019-01-09T22:45:02.793Z,8.80
2019-01-09T22:46:02.652Z,7.80
2019-01-09T22:47:55.315Z,7.30
2019-01-09T22:48:55.204Z,8.20
2019-01-09T22:50:47.880Z,7.80
2019-01-09T22:51:47.740Z,6.00
2019-01-09T22:53:40.394Z,8.60
2019-01-09T22:54:40.283Z,6.70
2019-01-09T22:56:32.962Z,5.70
2019-01-09T22:57:32.823Z,7.80
2019-01-09T22:59:25.496Z,6.10
